Time;durP1;ratioP1;P1;durP2;ratioP2;P2;SDS_P1;SDS_P2;PMS_P1;PMS_P2;Temp;Humidity;BMP_temperature;BMP_pressure;BME280_temperature;BME280_humidity;BME280_pressure;Samples;Min_cycle;Max_cycle;Signal;HPM_P1;HPM_P2
2024/01/25 00:01:12;;;;;;;17.90;2.90;;;10.00;99.90;;;9.90;100.00;102176.66;5226818;28;20131;-47
2024/01/25 00:03:45;;;;;;;16.30;2.25;;;10.00;99.90;;;9.86;100.00;102185.09;5240697;28;20045;-48
2024/01/25 00:06:17;;;;;;;9.40;2.13;;;9.90;99.90;;;9.87;100.00;102191.22;5245625;28;20047;-46
2024/01/25 00:08:50;;;;;;;18.60;2.17;;;9.90;99.90;;;9.83;100.00;102182.31;5249135;28;20060;-46
2024/01/25 00:11:23;;;;;;;12.15;2.38;;;9.90;99.90;;;9.79;100.00;102172.53;5259519;28;20040;-46
2024/01/25 00:13:59;;;;;;;12.45;1.77;;;9.90;99.90;;;9.75;100.00;102167.94;5256633;28;20044;-47
2024/01/25 00:16:31;;;;;;;13.00;1.90;;;9.80;99.90;;;9.74;100.00;102163.53;5266399;28;20059;-47
2024/01/25 00:19:04;;;;;;;13.50;1.80;;;9.80;99.90;;;9.71;100.00;102159.03;5259683;28;20517;-46
2024/01/25 00:21:36;;;;;;;8.00;2.38;;;9.80;99.90;;;9.69;100.00;102154.53;5260928;28;20068;-47
2024/01/25 00:24:08;;;;;;;14.30;1.92;;;9.80;99.90;;;9.68;100.00;102164.06;5253618;28;20068;-48
2024/01/25 00:26:42;;;;;;;13.30;2.15;;;9.80;99.90;;;9.66;100.00;102170.00;5262001;28;20059;-48
2024/01/25 00:29:15;;;;;;;15.35;2.28;;;9.70;99.90;;;9.63;100.00;102161.97;5265989;28;20055;-48
2024/01/25 00:31:47;;;;;;;19.65;2.58;;;9.70;99.90;;;9.62;100.00;102162.78;5261573;28;20048;-47
2024/01/25 00:34:20;;;;;;;9.45;1.63;;;9.70;99.90;;;9.62;100.00;102163.69;5249176;28;20036;-47
2024/01/25 00:36:54;;;;;;;22.40;3.20;;;9.70;99.90;;;9.62;100.00;102174.09;5247605;28;20057;-46
2024/01/25 00:39:27;;;;;;;21.00;2.42;;;9.70;99.90;;;9.65;100.00;102175.97;5265074;28;20164;-47
2024/01/25 00:42:07;;;;;;;16.20;2.38;;;9.70;99.90;;;9.62;100.00;102178.41;5254823;28;20415;-48
2024/01/25 00:44:40;;;;;;;19.48;3.30;;;9.70;99.90;;;9.62;100.00;102173.22;5261942;28;20045;-47
2024/01/25 00:47:13;;;;;;;16.17;2.22;;;9.70;99.90;;;9.61;100.00;102166.22;5245739;28;20049;-48
2024/01/25 00:49:50;;;;;;;17.38;2.38;;;9.70;99.90;;;9.61;100.00;102176.63;5257767;28;20052;-47
2024/01/25 00:52:23;;;;;;;13.02;2.10;;;9.70;99.90;;;9.60;100.00;102170.53;5260584;28;20044;-48
2024/01/25 00:54:56;;;;;;;18.23;2.22;;;9.70;99.90;;;9.60;100.00;102180.03;5262973;28;20045;-45
2024/01/25 00:57:31;;;;;;;16.00;2.17;;;9.70;99.90;;;9.58;100.00;102176.41;5261793;28;20049;-48
2024/01/25 01:00:05;;;;;;;14.77;2.67;;;9.70;99.90;;;9.55;100.00;102171.03;5260494;28;20052;-48
2024/01/25 01:02:43;;;;;;;16.80;2.28;;;9.70;99.90;;;9.56;100.00;102172.84;5244836;28;20055;-47
2024/01/25 01:05:17;;;;;;;16.80;2.22;;;9.70;99.90;;;9.58;100.00;102168.59;5246112;28;20537;-46
2024/01/25 01:07:50;;;;;;;13.13;2.50;;;9.70;99.90;;;9.61;100.00;102187.03;5271965;28;20050;-47
2024/01/25 01:10:22;;;;;;;13.65;2.45;;;9.70;99.90;;;9.58;100.00;102192.03;5258286;28;20051;-46
2024/01/25 01:12:56;;;;;;;16.70;2.05;;;9.70;99.90;;;9.58;100.00;102184.22;5263924;28;20040;-47
2024/01/25 01:15:29;;;;;;;11.63;1.63;;;9.70;99.90;;;9.56;100.00;102184.16;5248718;28;20519;-48
2024/01/25 01:18:01;;;;;;;14.65;2.03;;;9.70;99.90;;;9.56;100.00;102204.06;5269998;28;20083;-47
2024/01/25 01:20:33;;;;;;;22.88;2.80;;;9.70;99.90;;;9.58;100.00;102215.47;5253376;28;20525;-48
2024/01/25 01:23:06;;;;;;;14.63;2.45;;;9.70;99.90;;;9.57;100.00;102201.56;5259513;28;20051;-47
2024/01/25 01:25:38;;;;;;;19.55;2.50;;;9.70;99.90;;;9.53;100.00;102194.38;5249889;28;20052;-47
2024/01/25 01:28:12;;;;;;;16.88;2.75;;;9.60;99.90;;;9.50;100.00;102215.00;5268538;28;20052;-47
2024/01/25 01:30:45;;;;;;;12.35;2.83;;;9.60;99.90;;;9.45;100.00;102206.94;5274718;28;20056;-48
2024/01/25 01:33:17;;;;;;;15.15;2.15;;;9.50;99.90;;;9.45;100.00;102209.53;5264555;28;20093;-49
2024/01/25 01:35:50;;;;;;;16.23;2.40;;;9.60;99.90;;;9.42;100.00;102206.72;5254829;28;20055;-47
2024/01/25 01:38:22;;;;;;;11.93;2.08;;;9.50;99.90;;;9.39;100.00;102201.34;5259393;28;20541;-48
2024/01/25 01:40:55;;;;;;;16.38;2.05;;;9.50;99.90;;;9.32;100.00;102208.66;5261918;28;20040;-47
2024/01/25 01:43:29;;;;;;;17.83;2.70;;;9.40;99.90;;;9.27;100.00;102205.78;5247304;28;20040;-47
2024/01/25 01:46:23;;;;;;;16.63;2.17;;;9.40;99.90;;;9.20;100.00;102208.81;5262088;28;20056;-47
2024/01/25 01:48:56;;;;;;;19.98;2.53;;;9.30;99.90;;;9.13;100.00;102206.63;5248536;28;20056;-47
2024/01/25 01:51:29;;;;;;;18.33;2.85;;;9.30;99.90;;;9.10;100.00;102206.44;5247185;28;20511;-47
2024/01/25 01:54:03;;;;;;;14.32;1.98;;;9.20;99.90;;;9.05;100.00;102205.22;5254450;28;20040;-47
2024/01/25 01:56:36;;;;;;;15.73;2.72;;;9.20;99.90;;;8.97;100.00;102210.84;5266791;28;20675;-47
2024/01/25 01:59:11;;;;;;;18.52;2.47;;;9.10;99.90;;;8.93;100.00;102201.06;5254583;28;20052;-47
2024/01/25 02:01:43;;;;;;;9.90;2.22;;;9.10;99.90;;;8.89;100.00;102201.66;5252519;28;20044;-48
2024/01/25 02:04:16;;;;;;;18.38;2.70;;;9.00;99.90;;;8.86;100.00;102200.56;5260014;28;20045;-47
2024/01/25 02:06:48;;;;;;;5.68;1.58;;;9.00;99.90;;;8.81;100.00;102197.69;5250503;28;20506;-46
2024/01/25 02:09:21;;;;;;;10.43;2.13;;;8.90;99.90;;;8.79;100.00;102204.47;5256872;28;20507;-47
2024/01/25 02:12:01;;;;;;;16.45;2.22;;;8.90;99.90;;;8.76;100.00;102208.59;5253898;28;20061;-47
2024/01/25 02:14:35;;;;;;;16.00;2.08;;;8.90;99.90;;;8.73;100.00;102204.06;5253444;28;20040;-48
2024/01/25 02:17:07;;;;;;;11.63;1.88;;;8.90;99.90;;;8.72;100.00;102204.88;5265805;28;20040;-48
2024/01/25 02:19:40;;;;;;;17.65;1.98;;;8.80;99.90;;;8.72;100.00;102212.69;5264212;28;20089;-47
2024/01/25 02:22:19;;;;;;;16.75;2.30;;;8.90;99.90;;;8.69;100.00;102220.28;5256261;28;20045;-46
2024/01/25 02:24:51;;;;;;;18.27;2.15;;;8.80;99.90;;;8.66;100.00;102222.69;5258595;28;20049;-47
2024/01/25 02:27:24;;;;;;;13.45;2.38;;;8.80;99.90;;;8.64;100.00;102224.28;5259231;28;20045;-47
2024/01/25 02:29:56;;;;;;;28.55;2.92;;;8.80;99.90;;;8.62;100.00;102234.59;5258810;28;20205;-47
2024/01/25 02:32:29;;;;;;;13.30;2.30;;;8.80;99.90;;;8.59;100.00;102225.69;5259396;28;20053;-46
2024/01/25 02:35:01;;;;;;;21.40;2.78;;;8.70;99.90;;;8.58;100.00;102229.09;5253177;28;20117;-48
2024/01/25 02:37:35;;;;;;;9.73;2.05;;;8.70;99.90;;;8.57;100.00;102237.69;5263457;28;20048;-47
2024/01/25 02:40:12;;;;;;;16.27;2.72;;;8.70;99.90;;;8.56;100.00;102246.28;5246034;28;20048;-45
2024/01/25 02:42:44;;;;;;;15.20;2.50;;;8.70;99.90;;;8.55;100.00;102249.69;5259569;28;20048;-48
2024/01/25 02:45:17;;;;;;;6.38;1.88;;;8.70;99.90;;;8.53;100.00;102248.66;5249568;28;20416;-48
2024/01/25 02:47:49;;;;;;;15.77;2.05;;;8.70;99.90;;;8.52;100.00;102247.78;5263403;28;20058;-47
2024/01/25 02:50:22;;;;;;;17.55;2.33;;;8.60;99.90;;;8.53;100.00;102252.16;5263438;28;20036;-47
2024/01/25 02:52:56;;;;;;;12.98;2.40;;;8.60;99.90;;;8.51;100.00;102252.88;5251495;28;20392;-47
2024/01/25 02:55:28;;;;;;;18.67;2.03;;;8.60;99.90;;;8.52;100.00;102249.47;5246509;28;20052;-47
2024/01/25 02:58:01;;;;;;;16.00;1.88;;;8.60;99.90;;;8.50;100.00;102256.28;5273812;28;20056;-47
2024/01/25 03:00:34;;;;;;;19.13;2.88;;;8.60;99.90;;;8.47;100.00;102258.66;5249312;28;20049;-46
2024/01/25 03:03:06;;;;;;;16.92;2.38;;;8.60;99.90;;;8.41;100.00;102259.16;5256717;28;20060;-47
2024/01/25 03:05:39;;;;;;;14.52;2.45;;;8.50;99.90;;;8.38;100.00;102259.84;5259475;28;20056;-47
2024/01/25 03:08:12;;;;;;;10.82;2.10;;;8.50;99.90;;;8.37;100.00;102258.06;5264189;28;20071;-47
2024/01/25 03:10:45;;;;;;;8.02;2.17;;;8.50;99.90;;;8.33;100.00;102252.50;5254517;28;20455;-48
2024/01/25 03:13:17;;;;;;;14.43;1.80;;;8.50;99.90;;;8.29;100.00;102238.44;5268498;28;20507;-48
2024/01/25 03:15:50;;;;;;;10.05;1.67;;;8.40;99.90;;;8.26;100.00;102239.91;5254130;28;20048;-46
2024/01/25 03:18:22;;;;;;;7.85;1.55;;;8.40;99.90;;;8.25;100.00;102240.72;5247412;28;20078;-47
2024/01/25 03:20:54;;;;;;;14.02;2.28;;;8.40;99.90;;;8.20;100.00;102240.38;5259113;28;20178;-46
2024/01/25 03:23:28;;;;;;;20.92;2.33;;;8.30;99.90;;;8.18;100.00;102239.41;5251837;28;20033;-46
2024/01/25 03:26:04;;;;;;;8.27;1.92;;;8.30;99.90;;;8.15;100.00;102244.41;5250537;28;20053;-46
2024/01/25 03:28:38;;;;;;;14.32;1.88;;;8.30;99.90;;;8.16;100.00;102248.78;5250500;28;20048;-47
2024/01/25 03:31:11;;;;;;;13.00;1.67;;;8.30;99.90;;;8.13;100.00;102241.69;5268597;28;20045;-47
2024/01/25 03:33:43;;;;;;;13.55;2.33;;;8.30;99.90;;;8.13;100.00;102249.47;5259193;28;20418;-46
2024/01/25 03:36:16;;;;;;;12.13;1.98;;;8.20;99.90;;;8.10;100.00;102248.38;5264372;28;20088;-46
2024/01/25 03:38:50;;;;;;;8.35;1.98;;;8.20;99.90;;;8.08;100.00;102247.34;5270346;28;20044;-47
2024/01/25 03:41:23;;;;;;;10.05;1.80;;;8.20;99.90;;;8.08;100.00;102247.34;5248096;28;20047;-47
2024/01/25 03:43:55;;;;;;;13.38;2.75;;;8.20;99.90;;;8.08;100.00;102248.25;5262709;28;20442;-48
2024/01/25 03:46:28;;;;;;;16.55;2.60;;;8.20;99.90;;;8.05;100.00;102245.47;5254769;28;20076;-47
2024/01/25 03:49:00;;;;;;;11.88;2.30;;;8.20;99.90;;;8.05;100.00;102249.75;5250256;28;20049;-47
2024/01/25 03:51:33;;;;;;;13.23;2.05;;;8.20;99.90;;;8.03;100.00;102256.56;5247578;28;20445;-47
2024/01/25 03:54:08;;;;;;;15.88;2.80;;;8.10;99.90;;;8.02;100.00;102262.53;5265443;28;20572;-48
2024/01/25 03:56:41;;;;;;;;;;;8.20;99.90;;;8.02;100.00;102260.84;5256569;28;20049;-47
2024/01/25 03:59:14;;;;;;;11.43;2.20;;;8.10;99.90;;;8.00;100.00;102261.53;5264428;28;19924;-48
2024/01/25 04:01:48;;;;;;;15.05;2.45;;;8.10;99.90;;;7.96;100.00;102259.53;5256668;28;20075;-48
2024/01/25 04:04:20;;;;;;;11.20;2.30;;;8.10;99.90;;;7.92;100.00;102267.91;5254964;28;20127;-47
2024/01/25 04:06:53;;;;;;;9.82;2.03;;;8.00;99.90;;;7.89;100.00;102266.91;5256651;28;20214;-48
2024/01/25 04:09:26;;;;;;;15.10;2.72;;;8.00;99.90;;;7.93;100.00;102287.88;5253170;28;20074;-47
2024/01/25 04:11:59;;;;;;;11.85;2.65;;;8.00;99.90;;;7.95;100.00;102294.06;5264052;28;20098;-48
2024/01/25 04:14:31;;;;;;;8.02;2.33;;;8.10;99.90;;;7.98;100.00;102290.00;5264107;28;20044;-46
2024/01/25 04:17:04;;;;;;;15.57;2.60;;;8.00;99.90;;;7.98;100.00;102286.50;5271022;28;20071;-46
2024/01/25 04:19:37;;;;;;;20.80;2.92;;;8.10;99.90;;;7.97;100.00;102292.50;5255123;28;20518;-47
2024/01/25 04:22:10;;;;;;;18.48;2.13;;;8.10;99.90;;;7.97;100.00;102284.69;5259432;28;20052;-46
2024/01/25 04:24:44;;;;;;;10.23;2.88;;;8.10;99.90;;;7.96;100.00;102291.59;5254092;28;20090;-47
2024/01/25 04:27:16;;;;;;;19.30;2.90;;;8.10;99.90;;;7.97;100.00;102297.69;5249944;28;20075;-47
2024/01/25 04:29:49;;;;;;;16.40;2.38;;;8.10;99.90;;;7.94;100.00;102293.16;5254150;28;20072;-47
2024/01/25 04:32:21;;;;;;;16.20;3.13;;;8.10;99.90;;;7.91;100.00;102297.25;5252972;28;20051;-46
2024/01/25 04:34:54;;;;;;;16.27;2.75;;;8.00;99.90;;;7.89;100.00;102298.06;5263372;28;20044;-48
2024/01/25 04:37:26;;;;;;;7.35;1.73;;;8.00;99.90;;;7.87;100.00;102294.44;5251493;28;20044;-46
2024/01/25 04:40:00;;;;;;;18.80;2.53;;;8.00;99.90;;;7.84;100.00;102296.84;5250590;28;20083;-48
2024/01/25 04:42:33;;;;;;;16.08;2.88;;;7.90;99.90;;;7.81;100.00;102291.41;5263806;28;20044;-48
2024/01/25 04:45:07;;;;;;;20.58;2.50;;;7.90;99.90;;;7.78;100.00;102301.59;5263691;28;20065;-47
2024/01/25 04:47:40;;;;;;;;;;;7.90;99.90;;;7.74;100.00;102294.38;5262179;28;20147;-48
2024/01/25 04:50:13;;;;;;;7.07;2.38;;;7.90;99.90;;;7.71;100.00;102285.50;5261471;28;19966;-48
2024/01/25 04:52:45;;;;;;;17.35;3.08;;;7.80;99.90;;;7.67;100.00;102286.94;5254754;28;20048;-47
2024/01/25 04:55:20;;;;;;;8.30;2.85;;;7.80;99.90;;;7.64;100.00;102281.56;5251149;28;20082;-47
2024/01/25 04:57:53;;;;;;;16.20;2.85;;;7.80;99.90;;;7.60;100.00;102284.72;5247054;28;20045;-46
2024/01/25 05:00:25;;;;;;;26.27;3.40;;;7.70;99.90;;;7.59;100.00;102290.72;5264079;28;20503;-47
2024/01/25 05:02:58;;;;;;;15.75;3.03;;;7.70;99.90;;;7.58;100.00;102286.31;5258569;28;20540;-47
2024/01/25 05:05:30;;;;;;;12.93;2.50;;;7.70;99.90;;;7.57;100.00;102292.31;5255133;28;20516;-47
2024/01/25 05:08:02;;;;;;;15.52;2.83;;;7.70;99.90;;;7.57;100.00;102292.31;5263600;28;20056;-47
2024/01/25 05:10:36;;;;;;;16.13;2.35;;;7.70;99.90;;;7.57;100.00;102300.09;5245164;28;20049;-47
2024/01/25 05:13:09;;;;;;;17.25;2.60;;;7.70;99.90;;;7.56;100.00;102298.25;5252617;28;20060;-46
2024/01/25 05:15:42;;;;;;;24.17;2.72;;;7.60;99.90;;;7.53;100.00;102300.66;5261155;28;20044;-46
2024/01/25 05:18:15;;;;;;;9.85;2.75;;;7.60;99.90;;;7.51;100.00;102294.47;5258785;28;20520;-46
2024/01/25 05:20:47;;;;;;;16.42;3.47;;;7.60;99.90;;;7.48;100.00;102295.13;5258232;28;20714;-46
2024/01/25 05:23:20;;;;;;;14.07;2.80;;;7.60;99.90;;;7.48;100.00;102291.63;5252301;28;20384;-47
2024/01/25 05:25:55;;;;;;;19.83;2.30;;;7.50;99.90;;;7.45;100.00;102289.75;5251072;28;20506;-48
2024/01/25 05:28:27;;;;;;;15.27;2.40;;;7.60;99.90;;;7.45;100.00;102291.44;5253866;28;20048;-46
2024/01/25 05:31:00;;;;;;;10.27;2.33;;;7.50;99.90;;;7.43;100.00;102291.31;5259697;28;20048;-46
2024/01/25 05:33:32;;;;;;;14.73;3.05;;;7.50;99.90;;;7.38;100.00;102297.88;5255784;28;20093;-47
2024/01/25 05:36:05;;;;;;;17.75;3.17;;;7.50;99.90;;;7.34;100.00;102301.94;5248015;28;20067;-46
2024/01/25 05:38:38;;;;;;;9.20;2.80;;;7.40;99.90;;;7.32;100.00;102294.84;5254208;28;20074;-47
2024/01/25 05:41:12;;;;;;;8.50;2.53;;;7.40;99.90;;;7.28;100.00;102301.50;5263360;28;20052;-46
2024/01/25 05:43:45;;;;;;;12.10;2.60;;;7.30;99.90;;;7.27;100.00;102302.28;5257143;28;20078;-46
2024/01/25 05:46:17;;;;;;;11.93;2.63;;;7.30;99.90;;;7.25;100.00;102306.47;5264675;28;20518;-47
2024/01/25 05:48:51;;;;;;;9.70;2.17;;;7.30;99.90;;;7.22;100.00;102301.06;5263830;28;20499;-46
2024/01/25 05:51:24;;;;;;;11.52;2.20;;;7.30;99.90;;;7.17;100.00;102292.06;5266103;28;20141;-48
2024/01/25 05:53:57;;;;;;;14.80;2.92;;;7.20;99.90;;;7.14;100.00;102299.59;5262430;28;20063;-46
2024/01/25 05:56:31;;;;;;;8.85;2.88;;;7.20;99.90;;;7.11;100.00;102302.00;5249232;28;20052;-48
2024/01/25 05:59:04;;;;;;;15.05;2.33;;;7.20;99.90;;;7.09;100.00;102311.31;5271388;28;20596;-48
2024/01/25 06:01:36;;;;;;;14.60;2.85;;;7.10;99.90;;;7.04;100.00;102307.50;5262609;28;20659;-47
2024/01/25 06:04:09;;;;;;;12.98;2.85;;;7.10;99.90;;;7.01;100.00;102315.97;5265892;28;20048;-46
2024/01/25 06:06:41;;;;;;;12.98;2.88;;;7.10;99.90;;;6.98;100.00;102320.94;5255728;28;20040;-47
2024/01/25 06:09:15;;;;;;;12.20;2.22;;;7.00;99.90;;;6.95;100.00;102322.38;5260818;28;20055;-46
2024/01/25 06:11:48;;;;;;;17.25;4.13;;;7.00;99.90;;;6.93;100.00;102331.75;5254512;28;20097;-47
2024/01/25 06:14:21;;;;;;;14.25;2.45;;;7.00;99.90;;;6.89;100.00;102334.91;5271919;28;20418;-46
2024/01/25 06:16:53;;;;;;;14.90;2.90;;;6.90;99.90;;;6.85;100.00;102335.47;5255547;28;20040;-48
2024/01/25 06:19:26;;;;;;;9.80;2.78;;;6.90;99.90;;;6.79;100.00;102329.03;5251196;28;20060;-47
2024/01/25 06:21:58;;;;;;;7.72;2.35;;;6.80;99.90;;;6.76;100.00;102333.97;5250241;28;20045;-46
2024/01/25 06:24:30;;;;;;;15.07;2.25;;;6.80;99.90;;;6.74;100.00;102338.16;5255746;28;20483;-48
2024/01/25 06:27:05;;;;;;;19.58;3.63;;;6.80;99.90;;;6.67;100.00;102335.00;5256120;28;20052;-47
2024/01/25 06:29:37;;;;;;;11.70;2.28;;;6.70;99.90;;;6.60;100.00;102338.81;5263585;28;20048;-45
2024/01/25 06:32:11;;;;;;;18.08;3.00;;;6.70;99.90;;;6.51;100.00;102339.00;5257869;28;20515;-46
2024/01/25 06:34:46;;;;;;;10.57;1.88;;;6.60;99.90;;;6.46;100.00;102344.66;5259113;28;20095;-47
2024/01/25 06:37:19;;;;;;;12.73;2.42;;;6.50;99.90;;;6.39;100.00;102355.31;5248668;28;20059;-48
2024/01/25 06:39:52;;;;;;;12.80;3.38;;;6.50;99.90;;;6.34;100.00;102361.84;5267128;28;20040;-47
2024/01/25 06:42:29;;;;;;;6.70;1.63;;;6.40;99.90;;;6.30;100.00;102364.97;5259269;28;20048;-47
2024/01/25 06:45:01;;;;;;;4.95;1.48;;;6.40;99.90;;;6.28;100.00;102358.78;5248004;28;20407;-47
2024/01/25 06:47:34;;;;;;;10.07;1.90;;;6.40;99.90;;;6.29;100.00;102363.19;5246252;28;20520;-47
2024/01/25 06:50:08;;;;;;;10.43;2.20;;;6.30;99.90;;;6.31;100.00;102366.78;5250090;28;20062;-48
2024/01/25 06:52:43;;;;;;;16.33;2.35;;;6.30;99.90;;;6.32;100.00;102374.66;5262664;28;20044;-46
2024/01/25 06:55:16;;;;;;;8.82;2.22;;;6.40;99.90;;;6.32;100.00;102363.41;5258588;28;20072;-47
2024/01/25 06:57:50;;;;;;;18.05;2.25;;;6.40;99.90;;;6.31;100.00;102371.97;5260189;28;20044;-47
2024/01/25 07:00:23;;;;;;;11.05;2.13;;;6.40;99.90;;;6.24;100.00;102366.31;5252156;28;20515;-47
2024/01/25 07:02:55;;;;;;;16.15;3.10;;;6.30;99.90;;;6.19;100.00;102371.91;5256626;28;20563;-48
2024/01/25 07:05:29;;;;;;;12.98;2.63;;;6.30;99.90;;;6.14;100.00;102386.22;5273769;28;20047;-46
2024/01/25 07:08:02;;;;;;;7.85;2.28;;;6.20;99.90;;;6.09;100.00;102380.66;5249248;28;20056;-46
2024/01/25 07:10:34;;;;;;;12.20;2.50;;;6.20;99.90;;;6.08;100.00;102376.28;5267179;28;20498;-47
2024/01/25 07:13:08;;;;;;;11.18;2.15;;;6.20;99.90;;;6.11;100.00;102379.09;5263176;28;20514;-47
2024/01/25 07:15:40;;;;;;;10.82;2.25;;;6.10;99.90;;;6.14;100.00;102374.16;5264911;28;20036;-46
2024/01/25 07:18:13;;;;;;;10.43;2.92;;;6.20;99.90;;;6.19;100.00;102378.03;5268285;28;20127;-48
2024/01/25 07:20:45;;;;;;;13.32;2.60;;;6.20;99.90;;;6.20;100.00;102379.84;5254983;28;20071;-48
2024/01/25 07:23:18;;;;;;;16.38;2.50;;;6.30;99.90;;;6.15;100.00;102378.56;5268091;28;20379;-47
2024/01/25 07:25:51;;;;;;;8.60;1.83;;;6.20;99.90;;;6.11;100.00;102379.09;5248618;28;20052;-47
2024/01/25 07:28:25;;;;;;;11.52;2.50;;;6.20;99.90;;;6.07;100.00;102382.25;5261264;28;20044;-48
2024/01/25 07:30:57;;;;;;;8.32;2.10;;;6.20;99.90;;;6.06;100.00;102385.59;5257404;28;20093;-46
2024/01/25 07:33:29;;;;;;;15.20;2.38;;;6.10;99.90;;;6.05;100.00;102388.97;5259033;28;20040;-47
2024/01/25 07:36:02;;;;;;;13.40;3.10;;;6.20;99.90;;;6.03;100.00;102387.06;5270561;28;20047;-47
2024/01/25 07:38:35;;;;;;;22.00;2.83;;;6.10;99.90;;;5.99;100.00;102393.66;5238230;28;20140;-46
2024/01/25 07:41:07;;;;;;;12.65;2.40;;;6.10;99.90;;;5.97;100.00;102400.41;5272459;28;20044;-45
2024/01/25 07:43:41;;;;;;;9.35;2.45;;;6.10;99.90;;;5.95;100.00;102404.59;5267713;28;20059;-47
2024/01/25 07:46:15;;;;;;;13.25;2.28;;;6.10;99.90;;;5.94;100.00;102395.91;5257729;28;20049;-47
2024/01/25 07:48:47;;;;;;;11.20;2.80;;;6.00;99.90;;;5.96;100.00;102404.69;5267501;28;20051;-47
2024/01/25 07:51:19;;;;;;;15.35;2.58;;;6.00;99.90;;;5.98;100.00;102402.22;5262404;28;20052;-46
2024/01/25 07:53:52;;;;;;;11.60;3.00;;;6.00;99.90;;;5.99;100.00;102402.34;5271822;28;20449;-46
2024/01/25 07:56:24;;;;;;;15.88;2.28;;;6.10;99.90;;;5.99;100.00;102401.44;5263746;28;20044;-46
2024/01/25 07:58:59;;;;;;;14.02;2.22;;;6.10;99.90;;;5.99;100.00;102396.25;5256323;28;20040;-46
2024/01/25 08:01:32;;;;;;;3.75;1.73;;;6.00;99.90;;;6.00;100.00;102398.09;5264699;28;20036;-46
2024/01/25 08:04:04;;;;;;;7.55;1.85;;;6.10;99.90;;;6.02;100.00;102396.50;5266553;28;20055;-45
2024/01/25 08:06:37;;;;;;;6.28;2.00;;;6.10;99.90;;;6.08;100.00;102397.00;5263561;28;20055;-47
2024/01/25 08:09:09;;;;;;;14.25;2.22;;;6.10;99.90;;;6.13;100.00;102387.91;5247190;28;20055;-46
2024/01/25 08:11:42;;;;;;;14.18;2.92;;;6.20;99.90;;;6.21;100.00;102396.25;5252008;28;20075;-45
2024/01/25 08:14:16;;;;;;;6.60;1.70;;;6.20;99.90;;;6.29;100.00;102389.09;5254472;28;20449;-45
2024/01/25 08:16:48;;;;;;;8.20;2.35;;;6.30;99.90;;;6.38;100.00;102389.78;5271985;28;20079;-45
2024/01/25 08:19:21;;;;;;;10.75;2.25;;;6.40;99.90;;;6.49;100.00;102400.19;5258318;28;20055;-45
2024/01/25 08:21:53;;;;;;;6.75;1.63;;;6.50;99.90;;;6.89;100.00;102403.19;5245898;28;20048;-45
2024/01/25 08:24:25;;;;;;;8.98;2.22;;;6.80;99.90;;;7.39;100.00;102407.75;5253713;28;20350;-45
2024/01/25 08:26:58;;;;;;;13.15;3.05;;;7.20;99.90;;;7.45;100.00;102403.00;5264193;28;20486;-45
2024/01/25 08:29:32;;;;;;;15.38;3.75;;;7.40;99.90;;;7.45;100.00;102403.00;5255823;28;20430;-46
2024/01/25 08:32:05;;;;;;;13.13;3.40;;;7.40;99.90;;;7.49;100.00;102394.63;5260294;28;20044;-44
2024/01/25 08:34:40;;;;;;;8.02;2.90;;;7.50;99.90;;;7.51;100.00;102398.28;5259383;28;20055;-45
2024/01/25 08:37:13;;;;;;;12.43;2.85;;;7.50;99.90;;;7.57;100.00;102393.53;5265950;28;20036;-45
2024/01/25 08:39:49;;;;;;;8.23;2.70;;;7.60;99.90;;;7.61;100.00;102382.56;5269676;28;20042;-46
2024/01/25 08:42:21;;;;;;;15.18;3.40;;;7.60;99.90;;;7.61;100.00;102391.25;5265869;28;20059;-46
2024/01/25 08:44:55;;;;;;;14.88;3.63;;;7.60;99.90;;;7.60;100.00;102393.72;5261612;28;20051;-46
2024/01/25 08:47:27;;;;;;;14.50;3.92;;;7.60;99.90;;;7.63;100.00;102404.34;5261318;28;20043;-45
2024/01/25 08:49:59;;;;;;;12.90;3.67;;;7.60;99.90;;;7.67;100.00;102398.56;5261803;28;20569;-46
2024/01/25 08:52:32;;;;;;;14.38;3.38;;;7.70;99.90;;;7.71;100.00;102392.81;5254111;28;20051;-45
2024/01/25 08:55:05;;;;;;;14.02;3.20;;;7.70;99.90;;;7.76;100.00;102395.72;5266140;28;20051;-45
2024/01/25 08:57:39;;;;;;;12.68;3.05;;;7.80;99.90;;;7.82;100.00;102385.78;5253966;28;20044;-48
2024/01/25 09:00:15;;;;;;;11.50;2.85;;;7.80;99.90;;;7.89;100.00;102388.94;5265123;28;20482;-46
2024/01/25 09:02:50;;;;;;;12.40;2.42;;;7.90;99.90;;;7.99;100.00;102394.78;5264250;28;20048;-46
2024/01/25 09:05:23;;;;;;;10.63;3.10;;;7.90;99.90;;;8.08;100.00;102390.22;5265068;28;20050;-47
2024/01/25 09:07:55;;;;;;;12.18;2.90;;;8.00;99.90;;;8.18;100.00;102400.47;5263264;28;20052;-46
2024/01/25 09:10:28;;;;;;;11.15;3.00;;;8.10;99.90;;;8.26;100.00;102401.88;5259579;28;20051;-45
2024/01/25 09:13:03;;;;;;;20.52;3.47;;;8.20;99.90;;;8.33;100.00;102403.22;5244261;28;20048;-44
2024/01/25 09:15:37;;;;;;;15.55;2.60;;;8.20;99.90;;;8.41;100.00;102400.41;5251562;28;20594;-45
2024/01/25 09:18:09;;;;;;;13.55;2.97;;;8.30;99.90;;;8.49;100.00;102395.72;5259102;28;20044;-46
2024/01/25 09:20:47;;;;;;;14.60;2.88;;;8.40;99.90;;;8.61;100.00;102400.88;5276925;28;20070;-47
2024/01/25 09:23:20;;;;;;;17.10;3.20;;;8.50;99.90;;;8.68;100.00;102398.78;5260329;28;20142;-46
2024/01/25 09:25:52;;;;;;;19.15;3.10;;;8.60;99.90;;;8.76;100.00;102398.41;5263635;28;20037;-46
2024/01/25 09:28:25;;;;;;;14.23;3.75;;;8.60;99.90;;;8.80;100.00;102395.19;5251371;28;20059;-45
2024/01/25 09:30:58;;;;;;;8.70;2.92;;;8.70;99.90;;;8.79;100.00;102404.69;5254289;28;20044;-45
2024/01/25 09:33:31;;;;;;;11.60;3.00;;;8.70;99.90;;;8.81;100.00;102410.91;5255816;28;20123;-45
2024/01/25 09:36:04;;;;;;;9.50;3.35;;;8.70;99.90;;;8.88;100.00;102415.72;5265639;28;20044;-45
2024/01/25 09:38:36;;;;;;;11.65;2.55;;;8.80;99.90;;;8.95;100.00;102417.94;5262787;28;20095;-46
2024/01/25 09:41:09;;;;;;;16.50;3.05;;;8.80;99.90;;;9.03;100.00;102425.34;5261194;28;20050;-46
2024/01/25 09:43:41;;;;;;;15.57;3.58;;;8.90;99.90;;;9.11;100.00;102427.66;5262101;28;20059;-45
2024/01/25 09:46:16;;;;;;;18.48;2.72;;;9.00;99.90;;;9.19;100.00;102412.56;5264897;28;20043;-46
2024/01/25 09:48:49;;;;;;;11.23;3.13;;;9.00;99.90;;;9.26;100.00;102409.59;5264410;28;20044;-46
2024/01/25 09:51:21;;;;;;;14.52;3.03;;;9.10;99.90;;;9.35;100.00;102417.06;5253640;28;20139;-45
2024/01/25 09:53:55;;;;;;;16.05;3.08;;;9.20;99.90;;;9.42;100.00;102406.25;5255948;28;20059;-45
2024/01/25 09:56:31;;;;;;;22.92;3.97;;;9.30;99.90;;;9.48;100.00;102410.16;5258178;28;20044;-45
2024/01/25 09:59:05;;;;;;;14.52;2.63;;;9.30;99.90;;;9.54;100.00;102422.69;5255271;28;20052;-45
2024/01/25 10:01:39;;;;;;;9.75;2.58;;;9.40;99.90;;;9.62;100.00;102424.06;5249261;28;20227;-45
2024/01/25 10:04:11;;;;;;;13.07;3.40;;;9.40;99.90;;;9.72;100.00;102420.38;5259385;28;20419;-45
2024/01/25 10:06:47;;;;;;;17.50;3.17;;;9.50;99.90;;;9.82;100.00;102417.53;5247658;28;20165;-50
2024/01/25 10:09:20;;;;;;;12.57;2.65;;;9.60;99.90;;;9.89;100.00;102440.56;5246891;28;20052;-50
2024/01/25 10:11:52;;;;;;;15.57;3.83;;;9.70;99.90;;;9.92;100.00;102440.75;5253675;28;20047;-47
2024/01/25 10:14:25;;;;;;;14.20;3.10;;;9.80;99.90;;;10.02;100.00;102443.13;5263159;28;20048;-46
2024/01/25 10:16:59;;;;;;;16.30;2.80;;;9.80;99.90;;;10.11;100.00;102448.03;5263432;28;20043;-46
2024/01/25 10:19:31;;;;;;;13.50;2.88;;;9.90;99.90;;;10.17;100.00;102447.50;5253635;28;20075;-46
2024/01/25 10:22:08;;;;;;;13.02;2.85;;;10.00;99.90;;;10.23;100.00;102445.31;5246132;28;20044;-46
2024/01/25 10:24:42;;;;;;;20.33;2.80;;;10.00;99.90;;;10.27;100.00;102439.50;5252654;28;20535;-46
2024/01/25 10:27:15;;;;;;;15.18;3.45;;;10.10;99.90;;;10.32;100.00;102432.88;5259940;28;20089;-45
2024/01/25 10:29:47;;;;;;;19.42;3.63;;;10.10;99.90;;;10.38;100.00;102428.03;5259350;28;20059;-45
2024/01/25 10:32:21;;;;;;;18.17;3.10;;;10.20;99.90;;;10.47;100.00;102417.25;5258864;28;20059;-46
2024/01/25 10:34:54;;;;;;;15.65;3.50;;;10.20;99.90;;;10.54;100.00;102420.31;5259873;28;20052;-46
2024/01/25 10:37:29;;;;;;;19.42;4.03;;;10.30;99.90;;;10.65;100.00;102422.69;5260009;28;20039;-46